Latest Weather Observations for Richmond

IDN60901

Issued at 5:31 am EDT Wednesday 13 November 2019 (issued every 10 minutes, with the page automatically refreshed every 10 minutes)

About weather observations | Map of Sydney area stations | Latest observations for Sydney area | Other Formats
Station Details ID: 067105 Name: RICHMOND RAAF Lat: -33.60 Lon: 150.78 Height: 19.0 m
Data from the previous 72 hours. | See also: Recent months at Richmond
Date/Time
EDT
Temp
°C
App
Temp
°C
Dew
Point
°C
Rel
Hum
%
Delta-T
°C
Wind Press
QNH
hPa
Press
MSL
hPa
Rain since
9am
mm
Dir  Spd
km/h
Gust
km/h
Spd
kts
Gust
kts
13/05:30am 10.4 9.1 9.8 96 0.3 W 7 11 4 6 1012.0 1011.9 0.0
13/05:00am 10.9 11.0 10.1 95 0.4 CALM 0 0 0 0 1011.7 1011.6 0.0
13/04:30am 10.9 10.6 10.0 94 0.5 E 2 7 1 4 1011.4 1011.3 0.0
13/04:00am 10.5 8.8 9.7 95 0.4 SW 9 11 5 6 1011.0 1010.9 0.0
13/03:30am 12.2 12.6 11.3 94 0.5 CALM 0 0 0 0 1010.8 1010.7 0.0
13/03:00am 12.9 12.0 10.8 87 1.1 NE 6 7 3 4 1010.6 1010.5 0.0
13/02:30am 14.4 13.7 12.1 86 1.2 NNE 7 9 4 5 1010.4 1010.3 0.0
13/02:00am 14.3 14.0 11.6 84 1.4 NNE 4 7 2 4 1010.5 1010.4 0.0
13/01:30am 14.9 14.0 11.3 79 1.9 NNE 7 9 4 5 1010.5 1010.4 0.0
13/01:00am 15.3 15.7 11.1 76 2.2 CALM 0 0 0 0 1010.5 1010.4 0.0
13/12:30am 16.4 15.6 11.6 73 2.6 SSE 7 11 4 6 1010.5 1010.4 0.0
13/12:00am 16.8 15.2 11.7 72 2.8 S 11 17 6 9 1010.4 1010.3 0.0
 
Date/Time
EDT
Temp
°C
App
Temp
°C
Dew
Point
°C
Rel
Hum
%
Delta-T
°C
Wind Press
QNH
hPa
Press
MSL
hPa
Rain since
9am
mm
Dir  Spd
km/h
Gust
km/h
Spd
kts
Gust
kts
12/11:30pm 17.3 15.8 12.0 71 2.9 S 11 17 6 9 1010.1 1010.0 0.0
12/11:00pm 17.9 14.1 12.4 70 3.1 SSE 24 39 13 21 1009.4 1009.3 0.0
12/10:30pm 18.9 13.8 13.1 69 3.3 SE 32 46 17 25 1008.5 1008.4 0.0
12/10:00pm 21.2 17.1 11.5 54 5.4 SE 24 37 13 20 1007.4 1007.3 0.0
12/09:30pm 25.7 21.0 3.0 23 11.1 W 17 22 9 12 1006.4 1006.3 0.0
12/09:00pm 26.5 20.7 2.4 21 11.8 WSW 22 30 12 16 1005.3 1005.2 0.0
12/08:46pm 27.2 19.2 1.6 19 12.3 WSW 33 52 18 28 1004.9 1004.8 0.0
12/08:30pm 27.7 21.3 1.2 18 12.7 WSW 24 33 13 18 1004.5 1004.4 0.0
12/08:11pm 28.4 20.4 0.2 16 13.4 WSW 32 50 17 27 1003.8 1003.7 0.0
12/08:00pm 28.6 19.5 -0.5 15 13.7 WSW 37 54 20 29 1003.6 1003.5 0.0
12/07:35pm 29.6 21.3 -1.7 13 14.5 W 32 50 17 27 1003.5 1003.4 0.0
12/07:30pm 29.8 21.3 -1.5 13 14.5 W 33 50 18 27 1003.2 1003.1 0.0
12/07:24pm 30.3 22.3 -2.2 12 15.0 WSW 30 50 16 27 1003.0 1002.9 0.0
12/07:00pm 31.7 24.7 -3.6 10 16.1 WSW 24 37 13 20 1002.1 1002.0 0.0
12/06:30pm 32.4 24.1 -4.5 9 16.6 WSW 30 44 16 24 1001.4 1001.3 0.0
12/06:04pm 33.8 25.1 -5.0 8 17.5 W 32 50 17 27 1000.7 1000.6 0.0
12/06:00pm 33.7 24.8 -5.1 8 17.6 WNW 33 50 18 27 1000.5 1000.4 0.0
12/05:31pm 34.6 24.6 -4.4 8 17.9 WNW 39 57 21 31 1000.0 999.9 0.0
12/05:30pm 34.6 24.6 -4.4 8 17.9 WNW 39 50 21 27 1000.1 1000.0 0.0
12/05:00pm 34.8 23.9 -6.0 7 18.4 WNW 43 67 23 36 1000.1 1000.0 0.0
12/04:30pm 35.5 24.7 -3.8 8 18.3 W 44 65 24 35 999.8 999.7 0.0
12/04:18pm 35.7 25.5 -3.6 8 18.4 W 41 61 22 33 999.9 999.8 0.0
12/04:13pm 35.8 27.1 -3.5 8 18.4 WNW 33 61 18 33 999.7 999.6 0.0
12/04:05pm 36.5 28.8 -3.0 8 18.8 NW 28 46 15 25 999.9 999.8 0.0
12/04:00pm 36.3 27.2 -3.2 8 18.8 NW 35 46 19 25 1000.0 999.9 0.0
12/03:53pm 35.8 26.9 -5.3 7 18.7 NW 33 54 18 29 1000.0 999.9 0.0
12/03:44pm 36.1 26.8 -5.1 7 18.9 WNW 35 52 19 28 1000.0 999.9 0.0
12/03:39pm 36.1 26.7 -3.3 8 18.6 WNW 37 52 20 28 1000.0 999.9 0.0
12/03:32pm 36.5 28.2 -1.4 9 18.5 NW 32 50 17 27 1000.1 1000.0 0.0
12/03:30pm 36.3 27.8 -3.2 8 18.7 NW 32 44 17 24 1000.2 1000.1 0.0
12/03:00pm 36.2 27.5 -3.3 8 18.7 WNW 33 46 18 25 1000.7 1000.6 0.0
12/02:39pm 36.6 27.6 0.1 10 18.2 W 37 56 20 30 1001.0 1000.9 0.0
12/02:30pm 35.6 25.7 -3.7 8 18.4 W 39 56 21 30 1001.2 1001.1 0.0
12/02:20pm 36.2 27.7 -3.3 8 18.7 WNW 32 54 17 29 1001.5 1001.4 0.0
12/02:00pm 35.7 27.5 -3.6 8 18.5 WNW 30 44 16 24 1002.0 1001.9 0.0
12/01:49pm 35.4 27.2 -3.8 8 18.3 W 30 48 16 26 1002.0 1001.9 0.0
12/01:30pm 35.2 27.2 -2.4 9 17.9 WNW 30 43 16 23 1002.6 1002.5 0.0
12/01:00pm 35.5 27.1 -2.2 9 18.1 W 32 50 17 27 1003.1 1003.0 0.0
12/12:30pm 35.9 28.7 0.9 11 17.6 NW 28 48 15 26 1003.5 1003.4 0.0
12/12:27pm 35.0 27.3 -2.6 9 17.8 NW 28 48 15 26 1003.4 1003.3 0.0
12/12:00pm 34.1 25.0 -3.2 9 17.4 WNW 35 48 19 26 1004.1 1004.0 0.0
12/11:30am 33.5 25.0 -3.7 9 17.1 W 32 50 17 27 1004.6 1004.5 0.0
12/11:00am 32.8 24.2 -2.8 10 16.6 WNW 33 48 18 26 1005.3 1005.2 0.0
12/10:30am 32.1 23.2 -2.0 11 16.0 WNW 35 46 19 25 1005.7 1005.6 0.0
12/10:14am 31.7 24.2 -1.2 12 15.6 WNW 28 56 15 30 1005.9 1005.8 0.0
12/10:11am 31.7 25.1 -0.1 13 15.3 NW 24 48 13 26 1006.0 1005.9 0.0
12/10:00am 30.2 26.9 2.5 17 13.9 NNE 9 20 5 11 1006.4 1006.3 0.0
12/09:30am 27.3 23.7 6.7 27 10.9 NNE 15 20 8 11 1007.1 1007.0 0.0
12/09:00am 25.5 21.4 6.2 29 10.0 NNE 17 20 9 11 1007.6 1007.5 0.0
12/08:30am 24.1 19.9 5.9 31 9.3 NNE 17 22 9 12 1008.0 1007.9 0.0
12/08:00am 21.5 18.0 7.3 40 7.3 NNE 15 17 8 9 1008.3 1008.2 0.0
12/07:56am 21.1 18.3 8.4 44 6.7 NNE 13 17 7 9 1008.4 1008.3 0.0
12/07:30am 16.0 16.8 12.4 79 2.0 CALM 0 0 0 0 1008.5 1008.4 0.0
12/07:00am 13.2 14.0 12.7 97 0.3 CALM 0 0 0 0 1008.8 1008.7 0.0
12/06:30am 10.7 10.9 10.4 98 0.2 CALM 0 0 0 0 1008.8 1008.7 0.0
12/06:22am 10.3 10.4 10.0 98 0.2 CALM 0 0 0 0 1008.8 1008.7 0.0
12/06:00am 10.2 10.2 9.9 98 0.2 CALM 0 0 0 0 1008.7 1008.6 0.0
12/05:59am 10.2 10.2 9.9 98 0.2 CALM 0 0 0 0 1008.7 1008.6 0.0
12/05:44am 9.8 9.7 9.5 98 0.1 CALM 0 0 0 0 1008.6 1008.5 0.0
12/05:30am 9.8 9.7 9.5 98 0.1 CALM 0 0 0 0 1008.5 1008.4 0.0
12/05:00am 10.0 10.0 9.7 98 0.2 CALM 0 0 0 0 1008.5 1008.4 0.0
12/04:53am 10.2 10.2 9.9 98 0.2 CALM 0 0 0 0 1008.5 1008.4 0.0
12/04:42am 10.8 11.0 10.5 98 0.2 CALM 0 0 0 0 1008.7 1008.6 0.0
12/04:30am 11.2 11.5 10.9 98 0.2 CALM 0 0 0 0 1008.8 1008.7 0.0
12/04:00am 11.1 11.4 10.8 98 0.2 CALM 0 0 0 0 1009.2 1009.1 0.0
12/03:50am 11.6 12.0 11.3 98 0.2 CALM 0 0 0 0 1009.3 1009.2 0.0
12/03:30am 11.4 11.8 11.1 98 0.2 CALM 0 0 0 0 1009.5 1009.4 0.0
12/03:10am 11.7 12.1 11.4 98 0.2 CALM 0 0 0 0 1009.8 1009.7 0.0
12/03:00am 13.0 13.8 12.7 98 0.2 CALM 0 0 0 0 1009.9 1009.8 0.0
12/02:30am 13.5 14.5 13.2 98 0.2 CALM 0 0 0 0 1010.1 1010.0 0.0
12/02:00am 13.1 12.7 12.5 96 0.3 N 6 7 3 4 1010.6 1010.5 0.0
12/01:30am 14.2 15.4 13.9 98 0.2 CALM 0 0 0 0 1010.9 1010.8 0.0
12/01:00am 13.5 14.2 12.2 92 0.7 CALM 0 0 0 0 1011.2 1011.1 0.0
12/12:30am 15.0 16.3 14.0 94 0.6 CALM 0 0 0 0 1011.7 1011.6 0.0
12/12:00am 15.1 16.1 13.3 89 1.0 CALM 0 0 0 0 1011.8 1011.7 0.0
 
Date/Time
EDT
Temp
°C
App
Temp
°C
Dew
Point
°C
Rel
Hum
%
Delta-T
°C
Wind Press
QNH
hPa
Press
MSL
hPa
Rain since
9am
mm
Dir  Spd
km/h
Gust
km/h
Spd
kts
Gust
kts
11/11:30pm 16.4 17.4 13.3 82 1.7 CALM 0 0 0 0 1011.9 1011.8 0.0
11/11:00pm 16.8 16.5 12.7 77 2.3 NNE 6 9 3 5 1011.9 1011.8 0.0
11/10:30pm 18.1 18.7 13.2 73 2.8 NNE 2 6 1 3 1012.0 1011.9 0.0
11/10:00pm 18.3 17.7 13.4 73 2.8 ENE 9 13 5 7 1011.9 1011.8 0.0
11/09:30pm 19.6 19.5 14.0 70 3.2 ENE 7 9 4 5 1011.9 1011.8 0.0
11/09:00pm 19.3 18.9 13.0 67 3.6 ENE 7 9 4 5 1011.6 1011.5 0.0
11/08:30pm 20.8 20.3 13.7 64 4.1 ENE 9 13 5 7 1011.3 1011.2 0.0
11/08:00pm 21.7 19.7 13.9 61 4.5 ENE 17 26 9 14 1011.0 1010.9 0.0
11/07:30pm 22.8 20.4 13.8 57 5.2 ENE 19 24 10 13 1010.6 1010.5 0.0
11/07:00pm 24.2 21.8 13.7 52 6.2 ENE 19 22 10 12 1010.3 1010.2 0.0
11/06:30pm 25.9 23.1 13.1 45 7.5 ENE 20 30 11 16 1009.8 1009.7 0.0
11/06:00pm 26.9 23.4 12.2 40 8.5 ENE 22 32 12 17 1009.6 1009.5 0.0
11/05:30pm 29.2 25.7 10.8 32 10.5 ENE 20 30 11 16 1009.4 1009.3 0.0
11/05:00pm 30.6 26.6 6.5 22 12.9 ENE 17 22 9 12 1009.4 1009.3 0.0
11/04:30pm 30.5 25.9 6.4 22 12.9 ENE 20 28 11 15 1009.6 1009.5 0.0
11/04:00pm 30.7 26.6 7.8 24 12.6 ENE 19 24 10 13 1009.9 1009.8 0.0
11/03:30pm 29.6 25.7 6.9 24 12.2 ENE 17 26 9 14 1010.4 1010.3 0.0
11/03:00pm 28.8 24.3 6.8 25 11.7 ENE 20 30 11 16 1010.9 1010.8 0.0
11/02:30pm 28.8 24.7 7.9 27 11.3 ENE 19 26 10 14 1011.6 1011.5 0.0
11/02:00pm 28.0 23.8 7.3 27 11.1 NE 19 26 10 14 1012.3 1012.2 0.0
11/01:30pm 27.3 23.4 7.2 28 10.7 NE 17 28 9 15 1012.9 1012.8 0.0
11/01:00pm 26.9 24.2 8.8 32 9.9 NE 13 20 7 11 1013.4 1013.3 0.0
11/12:30pm 27.0 25.0 10.2 35 9.4 ENE 11 28 6 15 1013.9 1013.8 0.0
11/12:00pm 25.3 22.7 7.9 33 9.3 ESE 11 19 6 10 1014.5 1014.4 0.0
11/11:30am 24.6 22.0 7.7 34 8.9 ENE 11 20 6 11 1015.2 1015.1 0.0
11/11:00am 24.0 21.6 7.2 34 8.8 ESE 9 20 5 11 1015.5 1015.4 0.0
11/10:30am 23.2 21.3 8.9 40 7.7 NE 9 15 5 8 1015.9 1015.8 0.0
11/10:00am 22.2 20.9 10.0 46 6.6 NNE 7 15 4 8 1016.1 1016.0 0.0
11/09:30am 20.2 20.0 11.7 58 4.7 NNW 4 9 2 5 1016.5 1016.4 0.0
11/09:00am 17.8 17.4 11.1 65 3.6 N 4 9 2 5 1016.8 1016.7 0.0
11/08:30am 16.9 17.0 11.6 71 2.9 N 2 7 1 4 1016.8 1016.7 0.0
11/08:00am 14.6 15.0 11.4 81 1.7 CALM 0 0 0 0 1016.8 1016.7 0.0
11/07:30am 13.3 13.7 11.2 87 1.1 CALM 0 0 0 0 1016.6 1016.5 0.0
11/07:00am 11.9 12.3 11.3 96 0.3 CALM 0 0 0 0 1016.5 1016.4 0.0
11/06:30am 10.9 11.1 10.6 98 0.2 CALM 0 0 0 0 1016.4 1016.3 0.0
11/06:00am 10.3 10.4 10.0 98 0.2 CALM 0 0 0 0 1016.1 1016.0 0.0
11/05:30am 10.0 9.8 9.2 95 0.4 CALM 0 0 0 0 1016.1 1016.0 0.0
11/05:00am 10.7 10.3 9.9 95 0.4 NE 2 7 1 4 1015.8 1015.7 0.0
11/04:30am 11.3 10.4 10.5 95 0.4 NNE 6 7 3 4 1015.8 1015.7 0.0
11/04:00am 11.8 11.4 11.0 95 0.4 NE 4 9 2 5 1015.9 1015.8 0.0
11/03:30am 11.1 10.8 10.0 93 0.6 ENE 2 6 1 3 1016.0 1015.9 0.0
11/03:00am 11.5 10.3 9.6 88 1.0 SE 6 7 3 4 1016.0 1015.9 0.0
11/02:30am 12.1 11.0 10.5 90 0.8 NE 7 9 4 5 1016.0 1015.9 0.0
11/02:00am 12.2 12.1 9.4 83 1.4 CALM 0 0 0 0 1016.1 1016.0 0.0
11/01:30am 12.0 12.0 9.7 86 1.2 CALM 0 0 0 0 1016.2 1016.1 0.0
11/01:00am 12.7 12.6 9.5 81 1.6 CALM 0 0 0 0 1016.3 1016.2 0.0
11/12:30am 13.2 13.2 9.8 80 1.7 CALM 0 0 0 0 1016.6 1016.5 0.0
11/12:00am 13.6 13.6 9.8 78 2.0 CALM 0 0 0 0 1016.6 1016.5 0.0
 
Date/Time
EDT
Temp
°C
App
Temp
°C
Dew
Point
°C
Rel
Hum
%
Delta-T
°C
Wind Press
QNH
hPa
Press
MSL
hPa
Rain since
9am
mm
Dir  Spd
km/h
Gust
km/h
Spd
kts
Gust
kts
10/11:30pm 13.5 12.1 9.0 74 2.3 WNW 6 9 3 5 1016.6 1016.5 0.0
10/11:00pm 14.5 14.5 9.9 74 2.4 CALM 0 0 0 0 1016.6 1016.5 0.0
10/10:30pm 14.7 14.7 9.7 72 2.6 CALM 0 0 0 0 1016.5 1016.4 0.0
10/10:00pm 15.2 14.2 8.9 66 3.2 SSE 4 6 2 3 1016.4 1016.3 0.0
10/09:30pm 17.1 15.9 9.5 61 4.0 SSE 6 9 3 5 1016.1 1016.0 0.0
10/09:00pm 17.6 15.5 9.8 60 4.1 SE 11 13 6 7 1015.6 1015.5 0.0
10/08:30pm 18.2 15.6 9.3 56 4.7 SE 13 17 7 9 1015.1 1015.0 0.0
10/08:00pm 18.8 15.4 9.0 53 5.1 SE 17 20 9 11 1014.5 1014.4 0.0
10/07:30pm 19.9 16.1 8.9 49 5.8 SE 19 24 10 13 1013.8 1013.7 0.0
10/07:00pm 20.9 16.3 8.2 44 6.6 ESE 22 28 12 15 1012.8 1012.7 0.0
10/06:30pm 22.4 17.0 7.8 39 7.6 SE 26 32 14 17 1011.7 1011.6 0.0
10/06:00pm 23.1 16.8 7.6 37 8.1 ESE 30 35 16 19 1010.8 1010.7 0.0
10/05:30pm 25.0 18.5 6.7 31 9.5 ESE 30 39 16 21 1009.9 1009.8 0.0
10/05:00pm 27.2 21.3 3.7 22 11.8 SW 24 32 13 17 1009.5 1009.4 0.0
10/04:30pm 28.1 23.4 6.2 25 11.5 W 20 28 11 15 1009.2 1009.1 0.0
10/04:00pm 28.2 24.0 5.7 24 11.7 WSW 17 28 9 15 1009.4 1009.3 0.0
10/03:30pm 27.3 23.1 5.6 25 11.2 S 17 28 9 15 1009.5 1009.4 0.0
10/03:00pm 27.1 23.1 4.8 24 11.4 WSW 15 26 8 14 1009.8 1009.7 0.0
10/02:30pm 26.8 23.5 4.6 24 11.3 SW 11 17 6 9 1010.1 1010.0 0.0
10/02:00pm 26.3 22.8 5.3 26 10.8 SSW 13 26 7 14 1010.5 1010.4 0.0
10/01:30pm 25.5 21.4 4.6 26 10.5 SW 15 28 8 15 1010.8 1010.7 0.0
10/01:00pm 25.2 22.1 5.4 28 10.1 S 11 20 6 11 1011.1 1011.0 0.0
10/12:30pm 24.4 19.3 4.2 27 10.0 SW 20 44 11 24 1011.6 1011.5 0.0
10/12:00pm 24.5 21.0 5.3 29 9.7 SW 13 28 7 15 1011.8 1011.7 0.0
10/11:30am 23.5 19.8 4.5 29 9.4 WSW 13 20 7 11 1012.1 1012.0 0.0
10/11:00am 23.3 18.4 5.2 31 9.1 SW 20 39 11 21 1012.3 1012.2 0.0
10/10:30am 21.7 18.0 4.3 32 8.5 NW 13 22 7 12 1012.6 1012.5 0.0
10/10:00am 22.0 17.7 5.4 34 8.3 W 17 28 9 15 1012.7 1012.6 0.0
10/09:30am 21.2 17.6 5.1 35 7.9 SW 13 20 7 11 1012.9 1012.8 0.0
10/09:00am 19.5 15.8 4.4 37 7.3 W 13 20 7 11 1013.0 1012.9 0.0
10/08:30am 18.8 13.9 4.2 38 7.0 SW 19 28 10 15 1012.9 1012.8 0.0
10/08:00am 18.0 13.4 3.9 39 6.6 W 17 26 9 14 1012.5 1012.4 0.0
10/07:30am 17.1 12.9 3.8 41 6.2 WSW 15 20 8 11 1012.2 1012.1 0.0
10/07:00am 16.2 12.7 3.6 43 5.8 W 11 15 6 8 1011.9 1011.8 0.0
10/06:30am 14.6 11.1 3.4 47 5.1 WSW 11 19 6 10 1011.8 1011.7 0.0
10/06:00am 14.7 10.3 2.9 45 5.3 WSW 15 24 8 13 1011.4 1011.3 0.0

Latest Capital City Observations: Canberra | Sydney | Melbourne | Brisbane | Adelaide | Perth | Hobart | Darwin

Other formats

Comma delimited format used in spreadsheet applications
http://www.bom.gov.au/fwo/IDN60901/IDN60901.95753.axf

JavaScript Object Notation format (JSON) in row-major order
http://www.bom.gov.au/fwo/IDN60901/IDN60901.95753.json

Data quality

Most of these data are generated automatically and are frequently updated. Quality checks on data are not normally performed. It is possible for incorrect values to appear. Refer to information at About Latest Weather Observations and please check the disclaimer before using these data.